Time;durP1;ratioP1;P1;durP2;ratioP2;P2;SDS_P1;SDS_P2;PMS_P1;PMS_P2;Temp;Humidity;BMP_temperature;BMP_pressure;BME280_temperature;BME280_humidity;BME280_pressure;Samples;Min_cycle;Max_cycle;Signal;HPM_P1;HPM_P2
2023/10/07 00:00:24;;;;;;;7.40;4.25;;;;;;;;;;5074430;28;20546;-77
2023/10/07 00:02:53;;;;;;;6.03;4.63;;;;;;;;;;5074249;28;20182;-76
2023/10/07 00:05:26;;;;;;;8.07;4.85;;;;;;;;;;5074172;28;20194;-76
2023/10/07 00:07:55;;;;;;;6.85;4.78;;;;;;;;;;5074232;28;20273;-76
2023/10/07 00:10:25;;;;;;;6.50;3.85;;;;;;;;;;5074178;28;20218;-76
2023/10/07 00:12:53;;;;;;;18.10;4.88;;;;;;;;;;5073481;28;20217;-76
2023/10/07 00:15:22;;;;;;;8.13;3.60;;;;;;;;;;5073942;28;20198;-76
2023/10/07 00:17:49;;;;;;;10.90;5.97;;;;;;;;;;5073888;28;20190;-77
2023/10/07 00:20:20;;;;;;;9.45;5.25;;;;;;;;;;5073604;28;20644;-77
2023/10/07 00:22:53;;;;;;;5.72;4.05;;;;;;;;;;5073615;28;20209;-77
2023/10/07 00:25:22;;;;;;;5.25;4.35;;;;;;;;;;5073865;28;20186;-76
2023/10/07 00:27:49;;;;;;;9.20;4.90;;;;;;;;;;5073764;28;20276;-77
2023/10/07 00:30:22;;;;;;;6.70;4.10;;;;;;;;;;5073761;28;20194;-76
2023/10/07 00:32:50;;;;;;;7.93;5.05;;;;;;;;;;5073722;28;20178;-76
2023/10/07 00:35:20;;;;;;;7.32;4.45;;;;;;;;;;5073282;28;20263;-77
2023/10/07 00:37:47;;;;;;;5.43;3.60;;;;;;;;;;5073442;28;20198;-76
2023/10/07 00:40:31;;;;;;;6.13;4.28;;;;;;;;;;5073301;28;20190;-77
2023/10/07 00:42:58;;;;;;;6.15;3.78;;;;;;;;;;5073304;28;20213;-76
2023/10/07 00:45:26;;;;;;;5.88;4.18;;;;;;;;;;5073307;28;20291;-76
2023/10/07 00:47:53;;;;;;;7.18;4.28;;;;;;;;;;5073261;28;20198;-76
2023/10/07 00:50:23;;;;;;;6.25;3.85;;;;;;;;;;5072074;28;20216;-76
2023/10/07 00:52:57;;;;;;;6.57;4.50;;;;;;;;;;5073016;28;20221;-76
2023/10/07 00:55:29;;;;;;;8.10;4.38;;;;;;;;;;5072923;28;20212;-77
2023/10/07 00:58:08;;;;;;;6.72;4.22;;;;;;;;;;5073592;28;20187;-77
2023/10/07 01:00:43;;;;;;;5.28;3.95;;;;;;;;;;5071114;28;20174;-76
2023/10/07 01:03:31;;;;;;;8.30;4.18;;;;;;;;;;5073674;28;20185;-76
2023/10/07 01:06:12;;;;;;;7.72;4.50;;;;;;;;;;5073401;28;20209;-76
2023/10/07 01:08:44;;;;;;;5.15;4.20;;;;;;;;;;5073320;28;20188;-76
2023/10/07 01:11:22;;;;;;;6.03;3.78;;;;;;;;;;5073579;28;20273;-76
2023/10/07 01:13:50;;;;;;;9.30;4.22;;;;;;;;;;5073170;28;20635;-76
2023/10/07 01:16:27;;;;;;;7.20;5.60;;;;;;;;;;5072075;28;20182;-76
2023/10/07 01:19:04;;;;;;;7.30;3.67;;;;;;;;;;5073402;28;20327;-76
2023/10/07 01:21:33;;;;;;;5.90;3.85;;;;;;;;;;5072893;28;20193;-76
2023/10/07 01:24:06;;;;;;;5.75;4.03;;;;;;;;;;5072750;28;20194;-76
2023/10/07 01:26:40;;;;;;;6.85;2.95;;;;;;;;;;5072749;28;20177;-77
2023/10/07 01:29:13;;;;;;;11.05;4.38;;;;;;;;;;5073125;28;20259;-76
2023/10/07 01:31:48;;;;;;;6.72;4.53;;;;;;;;;;5073299;28;20269;-76
2023/10/07 01:34:19;;;;;;;4.95;3.50;;;;;;;;;;5073216;28;20531;-76
2023/10/07 01:36:46;;;;;;;6.25;3.45;;;;;;;;;;5072772;28;20244;-76
2023/10/07 01:39:16;;;;;;;6.90;3.42;;;;;;;;;;5073115;28;20550;-76
2023/10/07 01:41:45;;;;;;;4.60;2.70;;;;;;;;;;5073027;28;20182;-77
2023/10/07 01:44:15;;;;;;;7.95;3.45;;;;;;;;;;5072034;28;20186;-76
2023/10/07 01:46:44;;;;;;;6.00;3.20;;;;;;;;;;5072601;28;20186;-76
2023/10/07 01:49:12;;;;;;;5.38;3.83;;;;;;;;;;5072765;28;20194;-76
2023/10/07 01:51:43;;;;;;;6.05;3.33;;;;;;;;;;5075866;28;20194;-76
2023/10/07 01:54:11;;;;;;;5.28;3.30;;;;;;;;;;5077170;28;20209;-76
2023/10/07 01:56:40;;;;;;;5.88;3.55;;;;;;;;;;5076693;28;20190;-77
2023/10/07 01:59:17;;;;;;;6.05;3.65;;;;;;;;;;5076751;28;20255;-77
2023/10/07 02:01:50;;;;;;;5.68;3.20;;;;;;;;;;5075281;28;20546;-77
2023/10/07 02:04:18;;;;;;;7.68;4.20;;;;;;;;;;5075360;28;20210;-76
2023/10/07 02:06:51;;;;;;;5.28;3.28;;;;;;;;;;5076576;28;20236;-76
2023/10/07 02:09:25;;;;;;;5.25;3.35;;;;;;;;;;5076328;28;20179;-77
2023/10/07 02:11:57;;;;;;;5.93;3.20;;;;;;;;;;5076702;28;20174;-76
2023/10/07 02:14:25;;;;;;;4.93;2.80;;;;;;;;;;5076439;28;20602;-76
2023/10/07 02:17:00;;;;;;;5.05;2.97;;;;;;;;;;5075126;28;20193;-77
2023/10/07 02:19:29;;;;;;;4.10;2.70;;;;;;;;;;5076054;28;20178;-76
2023/10/07 02:22:04;;;;;;;4.05;3.08;;;;;;;;;;5075845;28;20280;-76
2023/10/07 02:24:32;;;;;;;6.07;2.78;;;;;;;;;;5076452;28;20185;-76
2023/10/07 02:27:04;;;;;;;3.97;2.97;;;;;;;;;;5074543;28;20190;-76
2023/10/07 02:29:31;;;;;;;6.50;3.20;;;;;;;;;;5076082;28;20239;-77
2023/10/07 02:32:11;;;;;;;4.70;2.80;;;;;;;;;;5074540;28;20218;-76
2023/10/07 02:34:51;;;;;;;5.65;3.35;;;;;;;;;;5076053;28;20233;-77
2023/10/07 02:37:18;;;;;;;5.88;2.50;;;;;;;;;;5076264;28;20205;-77
2023/10/07 02:39:54;;;;;;;4.45;2.85;;;;;;;;;;5075925;28;20229;-76
2023/10/07 02:42:24;;;;;;;7.45;3.47;;;;;;;;;;5075685;28;20686;-77
2023/10/07 02:45:00;;;;;;;4.68;2.50;;;;;;;;;;5075726;28;20216;-76
2023/10/07 02:47:29;;;;;;;5.07;3.47;;;;;;;;;;5075971;28;20185;-76
2023/10/07 02:50:00;;;;;;;6.60;4.18;;;;;;;;;;5075551;28;20274;-76
2023/10/07 02:52:34;;;;;;;5.32;3.83;;;;;;;;;;5075878;28;20179;-76
2023/10/07 02:55:14;;;;;;;6.63;3.97;;;;;;;;;;5075411;28;20202;-76
2023/10/07 02:57:43;;;;;;;6.35;3.90;;;;;;;;;;5074758;28;20666;-76
2023/10/07 03:00:16;;;;;;;5.15;3.75;;;;;;;;;;5075749;28;20197;-76
2023/10/07 03:02:50;;;;;;;5.70;3.33;;;;;;;;;;5075495;28;20273;-76
2023/10/07 03:05:27;;;;;;;6.57;3.60;;;;;;;;;;5075132;28;20188;-76
2023/10/07 03:08:02;;;;;;;5.68;3.60;;;;;;;;;;5076082;28;20178;-77
2023/10/07 03:10:43;;;;;;;4.55;3.15;;;;;;;;;;5075563;28;20575;-76
2023/10/07 03:13:15;;;;;;;4.50;2.58;;;;;;;;;;5075400;28;20225;-76
2023/10/07 03:15:46;;;;;;;8.80;3.40;;;;;;;;;;5075470;28;20202;-76
2023/10/07 03:18:24;;;;;;;4.25;2.58;;;;;;;;;;5075426;28;20178;-76
2023/10/07 03:21:06;;;;;;;5.00;2.83;;;;;;;;;;5075474;28;20174;-76
2023/10/07 03:23:36;;;;;;;4.10;2.60;;;;;;;;;;5074900;28;20178;-76
2023/10/07 03:26:08;;;;;;;4.68;2.60;;;;;;;;;;5072422;28;20182;-77
2023/10/07 03:28:43;;;;;;;9.52;3.45;;;;;;;;;;5075115;28;20182;-76
2023/10/07 03:31:18;;;;;;;7.68;4.53;;;;;;;;;;5075087;28;20269;-76
2023/10/07 03:33:48;;;;;;;10.32;3.20;;;;;;;;;;5074707;28;20208;-76
2023/10/07 03:36:41;;;;;;;4.88;3.10;;;;;;;;;;5074572;28;20294;-76
2023/10/07 03:39:23;;;;;;;3.15;2.10;;;;;;;;;;5074551;28;20216;-76
2023/10/07 03:41:52;;;;;;;4.57;2.47;;;;;;;;;;5074727;28;20579;-76
2023/10/07 03:44:25;;;;;;;6.72;3.00;;;;;;;;;;5074381;28;20190;-76
2023/10/07 03:46:55;;;;;;;6.78;3.55;;;;;;;;;;5074873;28;20591;-76
2023/10/07 03:49:23;;;;;;;3.85;2.03;;;;;;;;;;5075139;28;20182;-76
2023/10/07 03:52:03;;;;;;;3.72;2.15;;;;;;;;;;5074549;28;20185;-76
2023/10/07 03:54:30;;;;;;;3.70;2.28;;;;;;;;;;5074254;28;20206;-76
2023/10/07 03:56:59;;;;;;;6.40;3.60;;;;;;;;;;5074144;28;20189;-76
2023/10/07 03:59:28;;;;;;;20.13;10.07;;;;;;;;;;5074157;28;20649;-76
2023/10/07 04:01:55;;;;;;;25.35;14.93;;;;;;;;;;5074104;28;20224;-76
2023/10/07 04:04:23;;;;;;;7.38;4.25;;;;;;;;;;5074467;28;20559;-76
2023/10/07 04:06:51;;;;;;;17.35;10.70;;;;;;;;;;5073085;28;20232;-76
2023/10/07 04:09:21;;;;;;;27.77;18.73;;;;;;;;;;5073932;28;20198;-76
2023/10/07 04:11:49;;;;;;;24.70;15.30;;;;;;;;;;5074530;28;20235;-76
2023/10/07 04:14:27;;;;;;;41.58;28.30;;;;;;;;;;5072870;28;20660;-76
2023/10/07 04:16:59;;;;;;;45.67;27.42;;;;;;;;;;5073831;28;20223;-76
2023/10/07 04:19:38;;;;;;;54.10;35.88;;;;;;;;;;5073764;28;20181;-76
2023/10/07 04:22:07;;;;;;;51.40;31.67;;;;;;;;;;5071349;28;20185;-76
2023/10/07 04:24:38;;;;;;;31.40;20.15;;;;;;;;;;5073077;28;20643;-76
2023/10/07 04:27:06;;;;;;;30.98;21.58;;;;;;;;;;5073253;28;20174;-76
2023/10/07 04:29:33;;;;;;;28.13;17.23;;;;;;;;;;5073590;28;20194;-76
2023/10/07 04:32:11;;;;;;;18.38;13.25;;;;;;;;;;5073776;28;20202;-76
2023/10/07 04:34:51;;;;;;;10.23;8.00;;;;;;;;;;5073739;28;20699;-76
2023/10/07 04:37:29;;;;;;;10.52;7.88;;;;;;;;;;5073590;28;20182;-76
2023/10/07 04:43:00;;;;;;;20.55;14.15;;;;;;;;;;5073765;28;20535;-76
2023/10/07 04:45:36;;;;;;;19.85;14.02;;;;;;;;;;5073797;28;20244;-76
2023/10/07 04:48:23;;;;;;;20.52;15.82;;;;;;;;;;5073841;28;20182;-76
2023/10/07 04:51:03;;;;;;;9.40;6.80;;;;;;;;;;5072407;28;20178;-76
2023/10/07 04:53:37;;;;;;;12.13;10.82;;;;;;;;;;5073591;28;20186;-76
2023/10/07 04:56:05;;;;;;;34.17;30.92;;;;;;;;;;5073209;28;20202;-76
2023/10/07 04:58:31;;;;;;;42.60;38.58;;;;;;;;;;5073467;28;20197;-76
2023/10/07 05:01:06;;;;;;;42.08;38.40;;;;;;;;;;5073511;28;20229;-76
2023/10/07 05:03:34;;;;;;;13.98;12.57;;;;;;;;;;5073831;28;20264;-76
2023/10/07 05:06:04;;;;;;;10.60;9.48;;;;;;;;;;5072607;28;20182;-76
2023/10/07 05:08:33;;;;;;;10.82;7.78;;;;;;;;;;5073427;28;20186;-76
2023/10/07 05:11:04;;;;;;;15.43;13.95;;;;;;;;;;5072053;28;20217;-76
2023/10/07 05:13:33;;;;;;;15.63;14.07;;;;;;;;;;5073179;28;20222;-76
2023/10/07 05:15:59;;;;;;;14.55;13.05;;;;;;;;;;5072971;28;20691;-76
2023/10/07 05:18:29;;;;;;;20.05;18.13;;;;;;;;;;5073241;28;20247;-76
2023/10/07 05:20:58;;;;;;;9.00;6.95;;;;;;;;;;5073392;28;20190;-76
2023/10/07 05:23:25;;;;;;;7.47;5.28;;;;;;;;;;5073350;28;20190;-76
2023/10/07 05:25:52;;;;;;;5.95;3.30;;;;;;;;;;5072355;28;20182;-76
2023/10/07 05:28:21;;;;;;;7.60;4.40;;;;;;;;;;5073054;28;20222;-76
2023/10/07 05:30:52;;;;;;;7.82;4.30;;;;;;;;;;5075952;28;20197;-76
2023/10/07 05:33:20;;;;;;;9.60;5.63;;;;;;;;;;5076164;28;20181;-76
2023/10/07 05:35:54;;;;;;;9.00;5.47;;;;;;;;;;5075719;28;20295;-76
2023/10/07 05:38:26;;;;;;;7.38;4.97;;;;;;;;;;5075767;28;20198;-77
2023/10/07 05:40:54;;;;;;;6.90;4.45;;;;;;;;;;5076419;28;20181;-76
2023/10/07 05:43:22;;;;;;;7.93;4.40;;;;;;;;;;5076184;28;20204;-76
2023/10/07 05:45:49;;;;;;;9.15;6.55;;;;;;;;;;5076077;28;20267;-76
2023/10/07 05:48:16;;;;;;;6.25;4.00;;;;;;;;;;5075550;28;20186;-76
2023/10/07 05:50:44;;;;;;;6.63;3.53;;;;;;;;;;5075956;28;20199;-76
2023/10/07 05:53:13;;;;;;;5.25;3.30;;;;;;;;;;5075926;28;20193;-76
2023/10/07 05:55:44;;;;;;;9.55;4.43;;;;;;;;;;5075880;28;20583;-76
2023/10/07 05:58:12;;;;;;;7.55;4.13;;;;;;;;;;5075380;28;20209;-76
2023/10/07 06:00:40;;;;;;;6.15;4.10;;;;;;;;;;5075896;28;20201;-76
2023/10/07 06:03:11;;;;;;;10.68;8.15;;;;;;;;;;5075802;28;20200;-76
2023/10/07 06:05:42;;;;;;;16.20;11.23;;;;;;;;;;5074955;28;20198;-76
2023/10/07 06:08:10;;;;;;;14.93;10.85;;;;;;;;;;5075386;28;20194;-76
2023/10/07 06:10:38;;;;;;;11.27;8.07;;;;;;;;;;5075215;28;20197;-76
2023/10/07 06:13:09;;;;;;;19.67;13.95;;;;;;;;;;5075509;28;20280;-76
2023/10/07 06:15:37;;;;;;;10.27;8.20;;;;;;;;;;5075319;28;20202;-76
2023/10/07 06:18:05;;;;;;;8.10;5.18;;;;;;;;;;5074908;28;20252;-76
2023/10/07 06:20:37;;;;;;;10.27;5.28;;;;;;;;;;5075117;28;20226;-76
2023/10/07 06:23:13;;;;;;;9.60;6.20;;;;;;;;;;5069918;28;20183;-76
2023/10/07 06:25:41;;;;;;;8.80;5.22;;;;;;;;;;5074634;28;20189;-76
2023/10/07 06:28:16;;;;;;;9.40;4.65;;;;;;;;;;5074651;28;20194;-76
2023/10/07 06:30:45;;;;;;;7.80;4.30;;;;;;;;;;5073439;28;20617;-76
2023/10/07 06:33:13;;;;;;;8.13;4.50;;;;;;;;;;5074656;28;20251;-76
2023/10/07 06:35:41;;;;;;;5.47;3.45;;;;;;;;;;5074285;28;20210;-76
2023/10/07 06:38:09;;;;;;;10.05;5.78;;;;;;;;;;5074292;28;20194;-76
2023/10/07 06:40:43;;;;;;;9.95;3.45;;;;;;;;;;5073168;28;20265;-76
2023/10/07 06:43:14;;;;;;;5.43;3.00;;;;;;;;;;5074679;28;20546;-76
2023/10/07 06:45:44;;;;;;;5.82;3.85;;;;;;;;;;5075358;28;20183;-76
2023/10/07 06:48:12;;;;;;;6.93;3.47;;;;;;;;;;5075157;28;20193;-76
2023/10/07 06:50:41;;;;;;;5.20;3.60;;;;;;;;;;5075018;28;20202;-76
2023/10/07 06:53:11;;;;;;;7.55;3.50;;;;;;;;;;5074733;28;20424;-76
2023/10/07 06:55:43;;;;;;;6.80;4.27;;;;;;;;;;5074673;28;20205;-76
2023/10/07 06:58:11;;;;;;;7.10;4.53;;;;;;;;;;5074416;28;20892;-76
2023/10/07 07:00:48;;;;;;;7.50;4.10;;;;;;;;;;5074608;28;20451;-76
2023/10/07 07:03:25;;;;;;;12.53;4.17;;;;;;;;;;5074804;28;20934;-76
2023/10/07 07:05:52;;;;;;;9.00;3.70;;;;;;;;;;5074658;28;20463;-76
2023/10/07 07:08:22;;;;;;;13.10;4.97;;;;;;;;;;5074279;28;20494;-77
2023/10/07 07:10:55;;;;;;;13.53;5.80;;;;;;;;;;5074080;28;20440;-77
2023/10/07 07:13:27;;;;;;;6.97;4.60;;;;;;;;;;5073781;28;20590;-77
2023/10/07 07:16:06;;;;;;;7.07;4.33;;;;;;;;;;5074519;28;20472;-77
2023/10/07 07:18:33;;;;;;;8.53;3.50;;;;;;;;;;5074303;28;20420;-77
2023/10/07 07:21:14;;;;;;;5.70;3.10;;;;;;;;;;5073944;28;20464;-77
2023/10/07 07:23:45;;;;;;;9.80;6.03;;;;;;;;;;5074661;28;20432;-77
2023/10/07 07:26:11;;;;;;;5.83;2.93;;;;;;;;;;5074058;28;20432;-77
2023/10/07 07:28:43;;;;;;;7.10;3.70;;;;;;;;;;5074341;28;20432;-77
2023/10/07 07:31:26;;;;;;;6.30;4.07;;;;;;;;;;5073824;28;20428;-77
2023/10/07 07:34:06;;;;;;;7.00;4.07;;;;;;;;;;5074331;28;20436;-76
2023/10/07 07:36:39;;;;;;;9.70;6.83;;;;;;;;;;5073622;28;20460;-77
2023/10/07 07:39:10;;;;;;;8.40;5.40;;;;;;;;;;5073825;28;20907;-77
2023/10/07 07:41:54;;;;;;;5.80;4.40;;;;;;;;;;5073816;28;20494;-77
2023/10/07 07:44:32;;;;;;;7.80;3.87;;;;;;;;;;5073976;28;20417;-77
2023/10/07 07:47:02;;;;;;;9.23;4.83;;;;;;;;;;5074078;28;20433;-77
2023/10/07 07:49:33;;;;;;;6.90;4.87;;;;;;;;;;5072721;28;20945;-78
2023/10/07 07:52:01;;;;;;;7.30;5.70;;;;;;;;;;5073586;28;20418;-77
2023/10/07 07:54:29;;;;;;;6.60;4.73;;;;;;;;;;5073303;28;20440;-77
2023/10/07 07:57:04;;;;;;;5.70;4.03;;;;;;;;;;5073640;28;20504;-77
2023/10/07 07:59:32;;;;;;;7.80;4.23;;;;;;;;;;5073878;28;20431;-74
2023/10/07 08:02:12;;;;;;;7.13;5.10;;;;;;;;;;5073060;28;20527;-74
2023/10/07 08:04:43;;;;;;;6.20;4.30;;;;;;;;;;5072852;28;20435;-74
2023/10/07 08:07:18;;;;;;;8.87;7.97;;;;;;;;;;5073149;28;20424;-74
2023/10/07 08:09:50;;;;;;;6.93;4.07;;;;;;;;;;5072865;28;20424;-77
2023/10/07 08:12:19;;;;;;;13.03;5.17;;;;;;;;;;5073093;28;20425;-77
2023/10/07 08:14:49;;;;;;;9.60;5.53;;;;;;;;;;5072979;28;20463;-77
2023/10/07 08:17:25;;;;;;;10.67;4.80;;;;;;;;;;5072114;28;20572;-77
2023/10/07 08:19:53;;;;;;;7.40;5.17;;;;;;;;;;5073415;28;20464;-75
2023/10/07 08:22:24;;;;;;;6.70;4.90;;;;;;;;;;5073127;28;20490;-75
2023/10/07 08:25:00;;;;;;;7.13;4.20;;;;;;;;;;5072924;28;20903;-75
2023/10/07 08:27:49;;;;;;;6.37;4.30;;;;;;;;;;5072940;28;20478;-75
2023/10/07 08:30:29;;;;;;;6.17;4.50;;;;;;;;;;5072527;28;20433;-75
2023/10/07 08:33:05;;;;;;;5.67;4.30;;;;;;;;;;5072766;28;20436;-75
2023/10/07 08:35:34;;;;;;;10.13;4.87;;;;;;;;;;5072648;28;20945;-75
2023/10/07 08:38:19;;;;;;;6.60;4.20;;;;;;;;;;5072278;28;20467;-75
2023/10/07 08:40:56;;;;;;;6.37;4.60;;;;;;;;;;5073250;28;20448;-75
2023/10/07 08:43:32;;;;;;;6.87;4.50;;;;;;;;;;5073107;28;20936;-75
2023/10/07 08:46:08;;;;;;;6.80;3.70;;;;;;;;;;5072926;28;20436;-75
2023/10/07 08:48:38;;;;;;;6.00;4.50;;;;;;;;;;5072968;28;20423;-75
2023/10/07 08:51:14;;;;;;;6.00;4.60;;;;;;;;;;5071863;28;20439;-75
2023/10/07 08:53:42;;;;;;;5.60;3.93;;;;;;;;;;5072570;28;20424;-75
2023/10/07 08:56:10;;;;;;;5.77;4.50;;;;;;;;;;5072702;28;20829;-75
2023/10/07 08:58:44;;;;;;;6.23;3.93;;;;;;;;;;5072018;28;21021;-75
2023/10/07 09:01:18;;;;;;;6.93;4.10;;;;;;;;;;5072792;28;20424;-75
2023/10/07 09:03:49;;;;;;;5.83;4.63;;;;;;;;;;5072463;28;20426;-75
2023/10/07 09:06:19;;;;;;;5.70;4.50;;;;;;;;;;5071990;28;20439;-75
2023/10/07 09:08:46;;;;;;;5.37;4.00;;;;;;;;;;5072461;28;20881;-75
2023/10/07 09:11:18;;;;;;;5.80;4.40;;;;;;;;;;5072112;28;20934;-75
2023/10/07 09:13:47;;;;;;;5.67;3.90;;;;;;;;;;5072115;28;20463;-75
2023/10/07 09:16:14;;;;;;;5.10;4.07;;;;;;;;;;5072406;28;20472;-75
2023/10/07 09:18:42;;;;;;;4.83;3.77;;;;;;;;;;5072662;28;20436;-75
2023/10/07 09:21:19;;;;;;;5.40;4.67;;;;;;;;;;5071860;28;20436;-75
2023/10/07 09:23:52;;;;;;;5.90;3.93;;;;;;;;;;5072461;28;20566;-75
2023/10/07 09:26:30;;;;;;;6.07;4.77;;;;;;;;;;5071922;28;20496;-75
2023/10/07 09:28:59;;;;;;;6.63;4.10;;;;;;;;;;5071773;28;20428;-72
2023/10/07 09:31:30;;;;;;;8.27;4.00;;;;;;;;;;5070721;28;20517;-74
2023/10/07 09:34:03;;;;;;;5.27;4.00;;;;;;;;;;5072071;28;20921;-74
2023/10/07 09:36:36;;;;;;;7.07;4.03;;;;;;;;;;5071863;28;20792;-74
2023/10/07 09:39:16;;;;;;;6.33;3.73;;;;;;;;;;5072274;28;20779;-74
2023/10/07 09:41:44;;;;;;;5.77;3.90;;;;;;;;;;5071710;28;20796;-74
2023/10/07 09:44:26;;;;;;;5.80;4.63;;;;;;;;;;5071771;28;20938;-74
2023/10/07 09:46:53;;;;;;;6.20;4.10;;;;;;;;;;5072339;28;20467;-74
2023/10/07 09:49:22;;;;;;;5.30;4.07;;;;;;;;;;5071828;28;20436;-74
2023/10/07 09:51:56;;;;;;;5.17;4.00;;;;;;;;;;5071584;28;20444;-74
2023/10/07 09:54:47;;;;;;;5.30;4.07;;;;;;;;;;5071210;28;20436;-75
2023/10/07 09:57:24;;;;;;;5.73;4.43;;;;;;;;;;5072021;28;20452;-74
2023/10/07 10:00:00;;;;;;;6.20;3.83;;;;;;;;;;5072065;28;20442;-75
2023/10/07 10:02:45;;;;;;;6.73;3.80;;;;;;;;;;5068550;28;20427;-74
2023/10/07 10:05:26;;;;;;;5.27;3.70;;;;;;;;;;5070805;28;20439;-74
2023/10/07 10:08:11;;;;;;;5.43;4.27;;;;;;;;;;5070809;28;20467;-74
2023/10/07 10:10:44;;;;;;;6.27;3.87;;;;;;;;;;5070647;28;20424;-75
2023/10/07 10:13:28;;;;;;;4.70;3.43;;;;;;;;;;5075383;28;20478;-74
2023/10/07 10:15:59;;;;;;;4.70;4.00;;;;;;;;;;5075301;28;20849;-74
2023/10/07 10:18:38;;;;;;;5.90;3.80;;;;;;;;;;5075418;28;20427;-75
2023/10/07 10:21:09;;;;;;;4.73;3.60;;;;;;;;;;5074483;28;20441;-75
2023/10/07 10:23:38;;;;;;;7.40;4.40;;;;;;;;;;5075432;28;20515;-74
2023/10/07 10:26:15;;;;;;;4.63;3.73;;;;;;;;;;5075014;28;20507;-75
2023/10/07 10:28:43;;;;;;;6.50;3.33;;;;;;;;;;5075467;28;20427;-74
2023/10/07 10:31:19;;;;;;;5.20;3.43;;;;;;;;;;5074234;28;20795;-74
2023/10/07 10:33:49;;;;;;;4.50;3.57;;;;;;;;;;5073882;28;20443;-74
2023/10/07 10:36:18;;;;;;;5.00;3.93;;;;;;;;;;5075055;28;20918;-75
2023/10/07 10:38:46;;;;;;;7.00;3.60;;;;;;;;;;5075092;28;20736;-75
2023/10/07 10:41:15;;;;;;;8.83;7.60;;;;;;;;;;5074943;28;20837;-75
2023/10/07 10:43:43;;;;;;;6.97;3.90;;;;;;;;;;5075142;28;20439;-75
2023/10/07 10:46:10;;;;;;;3.80;3.13;;;;;;;;;;5070959;28;20446;-75
2023/10/07 10:48:38;;;;;;;4.17;3.37;;;;;;;;;;5074252;28;20428;-75
2023/10/07 10:51:06;;;;;;;4.73;3.77;;;;;;;;;;5074466;28;20436;-74
2023/10/07 10:53:34;;;;;;;4.70;3.60;;;;;;;;;;5075001;28;20444;-75
2023/10/07 10:56:04;;;;;;;4.73;3.43;;;;;;;;;;5072961;28;21278;-75
2023/10/07 10:58:35;;;;;;;5.37;3.50;;;;;;;;;;5074043;28;20443;-74
2023/10/07 11:01:05;;;;;;;4.80;3.53;;;;;;;;;;5074546;28;20483;-74
2023/10/07 11:03:33;;;;;;;7.10;3.97;;;;;;;;;;5074001;28;20444;-75
2023/10/07 11:06:03;;;;;;;6.43;4.40;;;;;;;;;;5074228;28;20432;-75
2023/10/07 11:08:30;;;;;;;4.43;3.40;;;;;;;;;;5073338;28;20966;-75
2023/10/07 11:11:00;;;;;;;4.03;2.90;;;;;;;;;;5074198;28;20514;-75
2023/10/07 11:13:30;;;;;;;5.00;3.57;;;;;;;;;;5073354;28;20464;-74
2023/10/07 11:16:09;;;;;;;3.80;3.20;;;;;;;;;;5073520;28;20501;-75
2023/10/07 11:18:37;;;;;;;6.37;3.33;;;;;;;;;;5074495;28;20428;-74
2023/10/07 11:21:05;;;;;;;7.73;3.30;;;;;;;;;;5073956;28;20570;-78
2023/10/07 11:23:34;;;;;;;5.53;3.07;;;;;;;;;;5073172;28;20436;-75
2023/10/07 11:26:03;;;;;;;4.53;3.43;;;;;;;;;;5074285;28;20444;-74
2023/10/07 11:28:34;;;;;;;5.20;3.77;;;;;;;;;;5074236;28;20477;-74
2023/10/07 11:31:01;;;;;;;5.00;3.60;;;;;;;;;;5073845;28;20519;-74
2023/10/07 11:33:28;;;;;;;5.70;3.40;;;;;;;;;;5073370;28;20526;-74
2023/10/07 11:35:59;;;;;;;7.23;3.80;;;;;;;;;;5073755;28;20490;-75
2023/10/07 11:38:27;;;;;;;7.03;3.53;;;;;;;;;;5073219;28;20437;-74
2023/10/07 11:40:55;;;;;;;6.10;3.63;;;;;;;;;;5073257;28;20466;-75
2023/10/07 11:43:23;;;;;;;6.80;3.40;;;;;;;;;;5073244;28;20447;-74
2023/10/07 11:45:51;;;;;;;6.33;3.90;;;;;;;;;;5073513;28;21032;-74
2023/10/07 11:48:19;;;;;;;5.63;3.60;;;;;;;;;;5072734;28;20508;-74
2023/10/07 11:50:47;;;;;;;5.33;3.53;;;;;;;;;;5072846;28;20451;-74
2023/10/07 11:53:15;;;;;;;6.80;4.60;;;;;;;;;;5073460;28;20503;-75
2023/10/07 11:55:42;;;;;;;6.87;4.33;;;;;;;;;;5063958;28;20430;-74
2023/10/07 11:58:15;;;;;;;6.27;3.33;;;;;;;;;;5052015;28;20906;-75
2023/10/07 12:00:42;;;;;;;5.53;3.70;;;;;;;;;;5072942;28;20875;-74
2023/10/07 12:03:12;;;;;;;5.47;3.40;;;;;;;;;;5072823;28;20982;-75
2023/10/07 12:05:40;;;;;;;6.87;4.13;;;28.40;26.90;;;;;;5072330;28;20437;-74
2023/10/07 12:08:11;;;;;;;9.83;3.70;;;;;;;;;;5071893;28;20480;-74
2023/10/07 12:10:39;;;;;;;5.57;3.77;;;;;;;;;;5072661;28;20479;-74
2023/10/07 12:13:07;;;;;;;6.77;3.67;;;;;;;;;;5072631;28;20468;-79
2023/10/07 12:15:35;;;;;;;6.93;4.00;;;;;;;;;;5072462;28;20448;-74
2023/10/07 12:18:06;;;;;;;6.20;3.70;;;;;;;;;;5072538;28;20448;-76
2023/10/07 12:20:36;;;;;;;7.97;4.33;;;;;;;;;;5072097;28;20437;-77
2023/10/07 12:23:05;;;;;;;7.50;3.80;;;;;;;;;;5072788;28;20522;-77
2023/10/07 12:25:32;;;;;;;6.70;3.23;;;;;;;;;;5072842;28;20924;-77
2023/10/07 12:28:05;;;;;;;6.10;3.37;;;;;;;;;;5072691;28;20878;-76
2023/10/07 12:30:34;;;;;;;5.30;2.87;;;;;;;;;;5073061;28;20987;-76
2023/10/07 12:33:01;;;;;;;6.53;4.33;;;;;;;;;;5072198;28;21002;-77
2023/10/07 12:35:34;;;;;;;5.90;3.37;;;;;;;;;;5071785;28;20452;-76
2023/10/07 12:38:02;;;;;;;6.23;3.20;;;;;;;;;;5072639;28;20877;-76
2023/10/07 12:40:30;;;;;;;4.50;2.43;;;;;;;;;;5072022;28;20477;-76
2023/10/07 12:43:01;;;;;;;6.00;3.37;;;;;;;;;;5072429;28;20895;-76
2023/10/07 12:45:30;;;;;;;5.90;3.30;;;;;;;;;;5072723;28;20432;-76
2023/10/07 12:47:59;;;;;;;6.40;3.27;;;;;;;;;;5072451;28;20472;-76
2023/10/07 12:50:30;;;;;;;10.47;3.60;;;;;;;;;;5072844;28;20436;-76
2023/10/07 12:52:58;;;;;;;6.10;3.70;;;;;;;;;;5072727;28;20417;-76
2023/10/07 12:55:32;;;;;;;6.07;2.80;;;;;;;;;;5072307;28;20437;-77
2023/10/07 12:58:05;;;;;;;5.20;2.93;;;;;;;;;;5071421;28;20432;-77
2023/10/07 13:00:33;;;;;;;6.33;3.20;;;;;;;;;;5072777;28;20513;-76
2023/10/07 13:03:05;;;;;;;7.43;3.20;;;;;;;;;;5071471;28;21007;-76
2023/10/07 13:05:37;;;;;;;5.60;3.30;;;;;;;;;;5072326;28;20437;-76
2023/10/07 13:08:08;;;;;;;8.60;3.30;;;;;;;;;;5072558;28;20476;-76
2023/10/07 13:10:39;;;;;;;5.97;3.50;;;;;;;;;;5072943;28;20416;-77
2023/10/07 13:13:06;;;;;;;6.20;3.40;;;;;;;;;;5072235;28;20835;-76
2023/10/07 13:15:35;;;;;;;4.83;3.00;;;;;;;;;;5072462;28;20502;-76
2023/10/07 13:18:03;;;;;;;4.97;2.80;;;;;;;;;;5070565;28;20432;-76
2023/10/07 13:20:33;;;;;;;6.40;3.20;;;;;;;;;;5072155;28;20515;-76
2023/10/07 13:23:03;;;;;;;3.77;2.00;;;;;;;;;;5072778;28;20441;-76
2023/10/07 13:25:33;;;;;;;4.53;2.23;;;;;;;;;;5072595;28;20845;-76
2023/10/07 13:28:02;;;;;;;4.40;2.57;;;;;;;;;;5072257;28;20468;-76
2023/10/07 13:30:30;;;;;;;6.30;3.17;;;;;;;;;;5072698;28;20484;-76
2023/10/07 13:32:58;;;;;;;4.50;2.47;;;;;;;;;;5072073;28;20432;-76
2023/10/07 13:35:27;;;;;;;5.97;2.67;;;;;;;;;;5070845;28;20428;-76
2023/10/07 13:37:56;;;;;;;4.20;1.90;;;;;;;;;;5072478;28;20769;-76
2023/10/07 13:40:24;;;;;;;4.00;2.47;;;;;;;;;;5071426;28;20938;-77
2023/10/07 13:42:52;;;;;;;5.23;2.10;;;;;;;;;;5072625;28;20761;-77
2023/10/07 13:45:23;;;;;;;6.80;5.23;;;;;;;;;;5072194;28;20432;-76
2023/10/07 13:47:50;;;;;;;8.83;5.87;;;;;;;;;;5075720;28;20482;-75
2023/10/07 13:50:20;;;;;;;5.17;3.00;;;;;;;;;;5076364;28;20435;-76
2023/10/07 13:52:51;;;;;;;6.90;4.30;;;;;;;;;;5076200;28;20490;-76
2023/10/07 13:55:33;;;;;;;7.50;5.20;;;;;;;;;;5075325;28;20427;-77
2023/10/07 13:58:00;;;;;;;4.73;2.30;;;;;;;;;;5076215;28;20747;-76
2023/10/07 14:00:36;;;;;;;4.70;2.70;;;;;;;;;;5075913;28;20863;-76
2023/10/07 14:03:05;;;;;;;4.33;2.20;;;;;;;;;;5076110;28;20428;-76
2023/10/07 14:05:36;;;;;;;5.97;2.20;;;;;;;;;;5075544;28;20432;-76
2023/10/07 14:08:10;;;;;;;4.03;2.13;;;;;;;;;;5075781;28;20977;-76
2023/10/07 14:10:38;;;;;;;7.80;1.80;;;;;;;;;;5076053;28;20429;-76
2023/10/07 14:13:06;;;;;;;7.60;2.27;;;;;;;;;;5075277;28;20480;-81
2023/10/07 14:15:35;;;;;;;4.50;2.10;;;;;;;;;;5074657;28;20511;-76
2023/10/07 14:18:03;;;;;;;5.63;2.00;;;;;;;;;;5075754;28;20433;-77
2023/10/07 14:20:31;;;;;;;3.60;1.90;;;;;;;;;;5075795;28;20455;-76
2023/10/07 14:22:59;;;;;;;4.60;2.37;;;;;;;;;;5075469;28;20489;-76
2023/10/07 14:25:26;;;;;;;9.17;4.40;;;;;;;;;;5075567;28;20436;-77
2023/10/07 14:27:56;;;;;;;6.27;3.50;;;;;;;;;;5076597;28;20471;-76
2023/10/07 14:30:23;;;;;;;5.43;2.60;;;;;;;;;;5076854;28;20523;-76
2023/10/07 14:32:53;;;;;;;3.90;2.00;;;;;;;;;;5076310;28;20436;-77
2023/10/07 14:35:20;;;;;;;4.93;2.80;;;;;;;;;;5076678;28;20927;-76
2023/10/07 14:37:47;;;;;;;5.50;2.27;;;;;;;;;;5075642;28;20490;-76
2023/10/07 14:40:18;;;;;;;4.80;2.63;;;;;;;;;;5075520;28;20441;-77
2023/10/07 14:42:45;;;;;;;5.17;2.37;;;;;;;;;;5075220;28;20435;-77
2023/10/07 14:45:13;;;;;;;5.80;2.20;;;;;;;;;;5075352;28;20462;-76
2023/10/07 14:47:40;;;;;;;5.13;3.23;;;;;;;;;;5074107;28;20441;-76
2023/10/07 14:50:11;;;;;;;5.37;2.10;;;;;;;;;;5074703;28;20479;-76
2023/10/07 14:52:38;;;;;;;4.20;2.00;;;;;;;;;;5075142;28;20431;-76
2023/10/07 14:55:06;;;;;;;8.87;2.40;;;;;;;;;;5074903;28;20478;-76
2023/10/07 14:57:34;;;;;;;8.23;2.40;;;;;;;;;;5074446;28;20432;-76
2023/10/07 15:00:10;;;;;;;4.63;2.43;;;;;;;;;;5074932;28;20953;-76
2023/10/07 15:02:37;;;;;;;4.57;2.37;;;;;;;;;;5074869;28;20906;-76
2023/10/07 15:05:05;;;;;;;4.57;2.90;;;;;;;;;;5074871;28;20797;-76
2023/10/07 15:07:34;;;;;;;5.20;2.50;;;;;;;;;;5074549;28;20974;-76